Aviation Digital Data Service (ADDS)

Output produced by METARs form (1631 UTC 20 July 2017)
found at http://aviationweather.gov/adds/metars/
 
KBGR 201441Z 2015/2112 32006KT P6SM SCT150 
     FM202000 30006KT P6SM VCTS BKN060CB 
     FM210100 21006KT P6SM SCT070